createdAt,value
2019-05-23T00:01:03.455Z,12.33
2019-05-23T00:03:38.249Z,13.32
2019-05-23T00:06:11.487Z,12.10
2019-05-23T00:08:41.455Z,12.43
2019-05-23T00:11:32.063Z,12.70
2019-05-23T00:14:07.590Z,11.88
2019-05-23T00:16:38.748Z,12.03
2019-05-23T00:19:09.246Z,11.68
2019-05-23T00:21:39.293Z,11.68
2019-05-23T00:24:09.117Z,11.55
2019-05-23T00:26:39.349Z,11.63
2019-05-23T00:29:10.973Z,10.85
2019-05-23T00:31:54.038Z,10.75
2019-05-23T00:34:23.441Z,12.10
2019-05-23T00:36:54.442Z,12.85
2019-05-23T00:39:24.193Z,12.47
2019-05-23T00:41:54.862Z,12.82
2019-05-23T00:44:24.700Z,11.93
2019-05-23T00:46:54.625Z,11.03
2019-05-23T00:49:24.671Z,10.98
2019-05-23T00:51:54.595Z,10.43
2019-05-23T00:54:24.714Z,10.40
2019-05-23T00:56:55.034Z,10.55
2019-05-23T00:59:27.524Z,10.50
2019-05-23T01:01:56.604Z,10.40
2019-05-23T01:04:27.094Z,10.48
2019-05-23T01:06:57.039Z,11.05
2019-05-23T01:09:27.459Z,9.93
2019-05-23T01:11:57.936Z,10.05
2019-05-23T01:14:28.789Z,10.50
2019-05-23T01:16:59.038Z,9.93
2019-05-23T01:19:30.019Z,10.43
2019-05-23T01:22:01.714Z,9.30
2019-05-23T01:24:46.779Z,9.53
2019-05-23T01:27:17.452Z,9.40
2019-05-23T01:29:50.471Z,9.03
2019-05-23T01:32:31.522Z,8.63
2019-05-23T01:35:01.610Z,8.83
2019-05-23T01:37:32.037Z,8.20
2019-05-23T01:40:02.065Z,7.67
2019-05-23T01:42:31.475Z,8.53
2019-05-23T01:45:02.237Z,8.55
2019-05-23T01:47:32.629Z,8.33
2019-05-23T01:50:02.752Z,8.20
2019-05-23T01:52:33.311Z,8.63
2019-05-23T01:55:03.011Z,8.60
2019-05-23T01:57:32.947Z,8.43
2019-05-23T02:00:10.555Z,8.80
2019-05-23T02:02:36.301Z,8.20
2019-05-23T02:05:05.965Z,8.48
2019-05-23T02:07:37.437Z,8.50
2019-05-23T02:10:07.337Z,8.95
2019-05-23T02:12:37.737Z,8.40
2019-05-23T02:15:08.067Z,8.73
2019-05-23T02:17:40.040Z,8.45
2019-05-23T02:20:10.508Z,8.70
2019-05-23T02:22:40.068Z,8.30
2019-05-23T02:25:12.420Z,8.20
2019-05-23T02:27:43.056Z,8.08
2019-05-23T02:30:32.972Z,8.95
2019-05-23T02:32:47.543Z,8.30
2019-05-23T02:35:17.153Z,7.92
2019-05-23T02:38:14.594Z,8.33
2019-05-23T02:40:49.496Z,8.88
2019-05-23T02:43:21.062Z,8.78
2019-05-23T02:45:52.030Z,9.20
2019-05-23T02:48:23.884Z,9.18
2019-05-23T02:50:58.575Z,8.00
2019-05-23T02:53:31.361Z,7.60
2019-05-23T02:56:03.470Z,8.13
2019-05-23T02:58:44.010Z,7.70
2019-05-23T03:01:36.276Z,7.75
2019-05-23T03:04:12.619Z,7.80
2019-05-23T03:06:43.843Z,7.70
2019-05-23T03:09:15.621Z,7.87
2019-05-23T03:11:47.400Z,7.65
2019-05-23T03:14:18.981Z,7.78
2019-05-23T03:16:52.335Z,7.17
2019-05-23T03:19:38.808Z,7.40
2019-05-23T03:22:56.268Z,7.83
2019-05-23T03:26:01.935Z,7.85
2019-05-23T03:28:39.531Z,6.75
2019-05-23T03:31:31.357Z,7.68
2019-05-23T03:33:58.439Z,7.70
2019-05-23T03:36:28.670Z,7.43
2019-05-23T03:38:58.585Z,7.62
2019-05-23T03:41:30.483Z,7.67
2019-05-23T03:44:01.719Z,7.15
2019-05-23T03:46:32.614Z,7.47
2019-05-23T03:49:02.206Z,7.70
2019-05-23T03:51:32.172Z,8.28
2019-05-23T03:54:04.450Z,8.25
2019-05-23T03:56:33.955Z,8.88
2019-05-23T03:59:04.866Z,8.28
2019-05-23T04:01:47.209Z,8.73
2019-05-23T04:04:06.357Z,9.40
2019-05-23T04:06:37.321Z,9.15
2019-05-23T04:09:08.076Z,9.05
2019-05-23T04:11:37.733Z,9.15
2019-05-23T04:14:08.497Z,9.83
2019-05-23T04:16:38.196Z,9.95
2019-05-23T04:19:08.023Z,10.35
2019-05-23T04:21:37.455Z,10.50
2019-05-23T04:24:07.266Z,10.25
2019-05-23T04:26:36.775Z,9.63
2019-05-23T04:29:06.257Z,9.73
2019-05-23T04:31:35.686Z,9.43
2019-05-23T04:34:05.482Z,9.93
2019-05-23T04:36:34.921Z,10.50
2019-05-23T04:39:05.537Z,9.57
2019-05-23T04:41:34.997Z,10.35
2019-05-23T04:44:05.566Z,10.30
2019-05-23T04:46:35.234Z,9.63
2019-05-23T04:49:05.120Z,9.93
2019-05-23T04:51:34.646Z,10.13
2019-05-23T04:54:04.266Z,9.43
2019-05-23T04:56:33.697Z,9.70
2019-05-23T04:59:03.503Z,9.48
2019-05-23T05:01:33.427Z,9.23
2019-05-23T05:04:03.547Z,9.33
2019-05-23T05:06:32.970Z,9.07
2019-05-23T05:09:02.516Z,8.90
2019-05-23T05:11:32.333Z,8.43
2019-05-23T05:14:02.072Z,8.40
2019-05-23T05:16:31.544Z,8.57
2019-05-23T05:19:01.259Z,8.38
2019-05-23T05:21:30.679Z,7.87
2019-05-23T05:24:00.367Z,7.13
2019-05-23T05:26:30.170Z,7.00
2019-05-23T05:28:59.689Z,5.70
2019-05-23T05:31:29.093Z,5.92
2019-05-23T05:33:58.519Z,5.40
2019-05-23T05:36:28.036Z,4.92
2019-05-23T05:38:57.838Z,4.20
2019-05-23T05:41:27.394Z,4.90
2019-05-23T05:43:56.826Z,4.25
2019-05-23T05:46:26.575Z,3.65
2019-05-23T05:48:56.769Z,4.00
2019-05-23T05:51:26.593Z,3.90
2019-05-23T05:53:57.121Z,3.83
2019-05-23T05:56:26.680Z,3.83
2019-05-23T05:58:56.118Z,3.43
2019-05-23T06:01:33.905Z,3.33
2019-05-23T06:03:57.094Z,3.40
2019-05-23T06:06:37.088Z,3.72
2019-05-23T06:09:15.556Z,4.03
2019-05-23T06:11:45.203Z,4.20
2019-05-23T06:14:14.709Z,4.30
2019-05-23T06:16:44.620Z,4.35
2019-05-23T06:19:14.946Z,5.00
2019-05-23T06:21:44.428Z,4.97
2019-05-23T06:24:13.804Z,5.05
2019-05-23T06:26:44.909Z,5.10
2019-05-23T06:29:14.324Z,4.30
2019-05-23T06:31:45.183Z,4.28
2019-05-23T06:34:15.192Z,3.90
2019-05-23T06:36:44.744Z,3.90
2019-05-23T06:39:16.256Z,3.15
2019-05-23T06:41:47.460Z,2.90
2019-05-23T06:44:17.286Z,3.30
2019-05-23T06:46:46.718Z,3.70
2019-05-23T06:49:16.122Z,3.50
2019-05-23T06:51:46.007Z,3.60
2019-05-23T06:54:15.467Z,3.80
2019-05-23T06:56:45.676Z,3.77
2019-05-23T06:59:15.709Z,3.40
2019-05-23T07:01:45.174Z,3.08
2019-05-23T07:04:14.527Z,2.90
2019-05-23T07:06:44.431Z,2.40
2019-05-23T07:09:17.518Z,2.33
2019-05-23T07:11:47.041Z,2.70
2019-05-23T07:14:16.972Z,2.50
2019-05-23T07:16:50.089Z,2.70
2019-05-23T07:19:18.510Z,2.42
2019-05-23T07:21:47.943Z,2.30
2019-05-23T07:24:17.662Z,2.80
2019-05-23T07:26:47.944Z,2.60
2019-05-23T07:29:17.476Z,2.72
2019-05-23T07:31:47.107Z,2.90
2019-05-23T07:34:16.715Z,2.70
2019-05-23T07:36:46.212Z,2.75
2019-05-23T07:39:16.195Z,2.83
2019-05-23T07:41:46.156Z,2.77
2019-05-23T07:44:15.589Z,2.58
2019-05-23T07:46:45.436Z,2.87
2019-05-23T07:49:15.026Z,2.90
2019-05-23T07:51:44.429Z,3.83
2019-05-23T07:54:31.090Z,3.10
2019-05-23T07:57:02.277Z,3.00
2019-05-23T07:59:32.136Z,3.15
2019-05-23T08:02:14.010Z,2.90
2019-05-23T08:04:43.560Z,2.72
2019-05-23T08:07:14.562Z,2.90
2019-05-23T08:09:43.991Z,2.60
2019-05-23T08:12:23.891Z,2.60
2019-05-23T08:14:53.365Z,2.42
2019-05-23T08:17:23.554Z,2.80
2019-05-23T08:19:53.003Z,3.10
2019-05-23T08:22:22.451Z,3.15
2019-05-23T08:24:51.948Z,2.80
2019-05-23T08:27:21.668Z,3.50
2019-05-23T08:29:51.116Z,2.80
2019-05-23T08:32:22.380Z,2.50
2019-05-23T08:34:51.814Z,2.08
2019-05-23T08:37:21.511Z,1.83
2019-05-23T08:39:51.568Z,1.72
2019-05-23T08:42:22.592Z,1.80
2019-05-23T08:44:52.174Z,1.80
2019-05-23T08:47:22.485Z,1.90
2019-05-23T08:49:52.212Z,2.17
2019-05-23T08:52:21.708Z,2.00
2019-05-23T08:54:55.166Z,2.10
2019-05-23T08:57:25.347Z,1.80
2019-05-23T08:59:54.967Z,1.85
2019-05-23T09:02:26.954Z,2.08
2019-05-23T09:05:04.615Z,1.90
2019-05-23T09:07:29.508Z,2.00
2019-05-23T09:09:59.507Z,1.75
2019-05-23T09:12:29.197Z,1.80
2019-05-23T09:14:58.628Z,1.72
2019-05-23T09:17:28.426Z,1.92
2019-05-23T09:19:57.877Z,1.80
2019-05-23T09:22:27.713Z,2.25
2019-05-23T09:24:58.480Z,2.02
2019-05-23T09:27:28.586Z,2.30
2019-05-23T09:29:58.161Z,1.67
2019-05-23T09:32:28.496Z,1.90
2019-05-23T09:34:57.938Z,1.60
2019-05-23T09:37:27.478Z,1.70
2019-05-23T09:39:57.602Z,1.62
2019-05-23T09:42:27.006Z,1.80
2019-05-23T09:44:58.928Z,1.80
2019-05-23T09:47:28.552Z,1.70
2019-05-23T09:49:58.082Z,1.70
2019-05-23T09:52:28.713Z,1.32
2019-05-23T09:54:58.174Z,1.60
2019-05-23T09:57:28.086Z,1.10
2019-05-23T09:59:57.502Z,1.20
2019-05-23T10:02:28.423Z,1.50
2019-05-23T10:04:57.968Z,1.57
2019-05-23T10:07:27.620Z,1.32
2019-05-23T10:09:57.060Z,1.70
2019-05-23T10:12:26.722Z,1.20
2019-05-23T10:14:56.760Z,1.00
2019-05-23T10:17:26.210Z,1.35
2019-05-23T10:19:55.797Z,1.70
2019-05-23T10:22:25.244Z,1.62
2019-05-23T10:24:54.702Z,1.40
2019-05-23T10:27:24.208Z,1.12
2019-05-23T10:29:53.626Z,1.20
2019-05-23T10:32:23.641Z,1.40
2019-05-23T10:34:53.081Z,1.30
2019-05-23T10:37:23.586Z,1.10
2019-05-23T10:39:55.526Z,1.37
2019-05-23T10:42:28.220Z,1.40
2019-05-23T10:44:57.770Z,1.30
2019-05-23T10:47:28.393Z,1.57
2019-05-23T10:49:58.483Z,1.50
2019-05-23T10:52:28.936Z,1.40
2019-05-23T10:54:58.558Z,1.40
2019-05-23T10:57:28.011Z,1.40
2019-05-23T10:59:58.030Z,1.40
2019-05-23T11:02:27.669Z,1.45
2019-05-23T11:04:57.251Z,1.60
2019-05-23T11:07:27.501Z,1.40
2019-05-23T11:09:59.144Z,1.60
2019-05-23T11:12:28.628Z,1.43
2019-05-23T11:14:59.653Z,1.80
2019-05-23T11:17:29.131Z,1.55
2019-05-23T11:19:58.698Z,1.60
2019-05-23T11:22:28.442Z,1.80
2019-05-23T11:24:59.368Z,1.70
2019-05-23T11:27:30.693Z,2.00
2019-05-23T11:30:12.295Z,1.90
2019-05-23T11:32:41.801Z,2.40
2019-05-23T11:35:11.453Z,2.02
2019-05-23T11:37:42.115Z,1.83
2019-05-23T11:40:11.769Z,1.50
2019-05-23T11:42:41.502Z,1.45
2019-05-23T11:45:11.057Z,1.60
2019-05-23T11:47:40.492Z,1.90
2019-05-23T11:50:10.867Z,1.87
2019-05-23T11:52:40.812Z,1.82
2019-05-23T11:55:10.446Z,2.05
2019-05-23T11:57:39.869Z,1.97
2019-05-23T12:00:11.584Z,2.20
2019-05-23T12:02:42.734Z,2.02
2019-05-23T12:05:17.438Z,2.10
2019-05-23T12:07:46.980Z,2.40
2019-05-23T12:10:18.022Z,2.17
2019-05-23T12:12:47.460Z,2.20
2019-05-23T12:15:22.386Z,2.20
2019-05-23T12:17:52.285Z,2.30
2019-05-23T12:20:22.061Z,2.12
2019-05-23T12:22:51.660Z,2.30
2019-05-23T12:25:23.628Z,2.40
2019-05-23T12:27:53.153Z,2.20
2019-05-23T12:30:22.596Z,2.45
2019-05-23T12:32:52.049Z,2.42
2019-05-23T12:35:21.521Z,2.60
2019-05-23T12:37:55.484Z,2.37
2019-05-23T12:40:25.024Z,2.22
2019-05-23T12:42:54.436Z,2.50
2019-05-23T12:45:23.910Z,2.08
2019-05-23T12:48:00.860Z,1.85
2019-05-23T12:50:35.509Z,2.10
2019-05-23T12:53:05.452Z,6.50
2019-05-23T12:55:34.958Z,9.53
2019-05-23T12:58:04.398Z,12.45
2019-05-23T13:00:49.645Z,13.18
2019-05-23T13:03:19.045Z,12.70
2019-05-23T13:05:48.508Z,13.18
2019-05-23T13:08:18.196Z,12.95
2019-05-23T13:10:47.729Z,10.83
2019-05-23T13:13:17.178Z,11.25
2019-05-23T13:15:46.620Z,11.03
2019-05-23T13:18:16.098Z,11.22
2019-05-23T13:20:46.428Z,8.70
2019-05-23T13:23:20.762Z,7.95
2019-05-23T13:25:47.368Z,7.25
2019-05-23T13:28:16.878Z,5.70
2019-05-23T13:30:46.299Z,5.50
2019-05-23T13:33:16.306Z,5.33
2019-05-23T13:35:46.093Z,2.90
2019-05-23T13:38:15.611Z,4.30
2019-05-23T13:40:45.032Z,3.60
2019-05-23T13:43:14.677Z,3.27
2019-05-23T13:45:44.115Z,3.25
2019-05-23T13:48:13.617Z,3.30
2019-05-23T13:50:43.793Z,2.90
2019-05-23T13:53:13.213Z,3.20
2019-05-23T13:55:42.843Z,3.45
2019-05-23T13:58:12.275Z,3.92
2019-05-23T14:00:42.183Z,4.90
2019-05-23T14:03:12.243Z,6.20
2019-05-23T14:05:42.075Z,7.12
2019-05-23T14:08:13.321Z,9.10
2019-05-23T14:10:42.908Z,9.78
2019-05-23T14:13:12.434Z,12.03
2019-05-23T14:15:44.058Z,15.93
2019-05-23T14:18:16.298Z,12.75
2019-05-23T14:20:45.794Z,11.75
2019-05-23T14:23:34.558Z,12.00
2019-05-23T14:26:05.008Z,13.15
2019-05-23T14:28:34.557Z,13.75
2019-05-23T14:31:18.148Z,14.25
2019-05-23T14:34:00.110Z,14.10
2019-05-23T14:36:57.678Z,14.40
2019-05-23T14:39:39.242Z,15.08
2019-05-23T14:42:46.030Z,15.40
2019-05-23T14:45:38.466Z,15.90
2019-05-23T14:48:23.583Z,16.57
2019-05-23T14:51:03.772Z,17.20
2019-05-23T14:53:33.922Z,17.50
2019-05-23T14:56:03.465Z,17.60
2019-05-23T14:58:32.896Z,18.32
2019-05-23T15:01:03.290Z,17.95
2019-05-23T15:03:35.675Z,17.73
2019-05-23T15:06:04.404Z,16.73
2019-05-23T15:08:49.846Z,17.48
2019-05-23T15:11:05.486Z,17.60
2019-05-23T15:13:35.218Z,17.77
2019-05-23T15:16:05.324Z,17.23
2019-05-23T15:18:34.815Z,16.15
2019-05-23T15:21:04.246Z,16.57
2019-05-23T15:23:33.820Z,16.42
2019-05-23T15:26:21.071Z,15.43
2019-05-23T15:28:34.450Z,15.78
2019-05-23T15:31:03.989Z,14.63
2019-05-23T15:33:33.371Z,15.38
2019-05-23T15:36:02.791Z,15.15
2019-05-23T15:38:32.244Z,14.85
2019-05-23T15:41:01.831Z,15.40
2019-05-23T15:43:31.394Z,15.73
2019-05-23T15:46:00.844Z,14.73
2019-05-23T15:48:33.057Z,14.98
2019-05-23T15:51:03.497Z,15.85
2019-05-23T15:53:52.826Z,16.10
2019-05-23T15:56:33.449Z,16.03
2019-05-23T15:59:21.005Z,17.37
2019-05-23T16:02:18.462Z,16.07
2019-05-23T16:04:49.077Z,16.60
2019-05-23T16:07:18.684Z,17.87
2019-05-23T16:09:48.828Z,16.12
2019-05-23T16:12:18.257Z,16.70
2019-05-23T16:14:48.218Z,16.97
2019-05-23T16:17:17.941Z,17.15
2019-05-23T16:19:47.369Z,15.78
2019-05-23T16:22:17.113Z,16.10
2019-05-23T16:24:47.169Z,15.98
2019-05-23T16:27:16.797Z,16.52
2019-05-23T16:29:46.275Z,16.30
2019-05-23T16:32:16.048Z,15.70
2019-05-23T16:34:45.708Z,16.90
2019-05-23T16:37:15.814Z,16.27
2019-05-23T16:39:48.693Z,17.15
2019-05-23T16:42:18.373Z,16.62
2019-05-23T16:44:47.818Z,16.33
2019-05-23T16:47:17.443Z,16.35
2019-05-23T16:49:47.055Z,15.45
2019-05-23T16:52:16.544Z,16.00
2019-05-23T16:54:47.614Z,16.50
2019-05-23T16:57:32.062Z,16.05
2019-05-23T17:00:25.622Z,15.78
2019-05-23T17:03:17.340Z,24.35
2019-05-23T17:05:54.211Z,16.12
2019-05-23T17:08:44.433Z,16.37
2019-05-23T17:11:23.425Z,17.17
2019-05-23T17:14:04.499Z,23.80
2019-05-23T17:16:59.066Z,16.70
2019-05-23T17:19:45.945Z,15.60
2019-05-23T17:22:52.341Z,16.30
2019-05-23T17:25:40.703Z,16.25
2019-05-23T17:28:29.281Z,15.50
2019-05-23T17:31:18.093Z,16.52
2019-05-23T17:33:49.340Z,17.50
2019-05-23T17:36:18.815Z,17.73
2019-05-23T17:38:48.233Z,17.65
2019-05-23T17:41:18.099Z,17.52
2019-05-23T17:43:47.532Z,16.12
2019-05-23T17:46:17.480Z,17.62
2019-05-23T17:48:46.996Z,28.77
2019-05-23T17:51:16.441Z,19.60
2019-05-23T17:53:45.961Z,25.07
2019-05-23T17:56:15.427Z,19.70
2019-05-23T17:58:45.075Z,17.50
2019-05-23T18:01:14.914Z,18.23
2019-05-23T18:03:44.478Z,18.15
2019-05-23T18:06:13.877Z,23.05
2019-05-23T18:08:43.320Z,18.45
2019-05-23T18:11:12.881Z,20.20
2019-05-23T18:13:42.742Z,19.57
2019-05-23T18:16:13.427Z,20.00
2019-05-23T18:18:42.932Z,19.77
2019-05-23T18:21:12.436Z,19.20
2019-05-23T18:23:41.852Z,19.67
2019-05-23T18:26:11.694Z,19.73
2019-05-23T18:28:41.126Z,19.12
2019-05-23T18:31:22.516Z,21.82
2019-05-23T18:33:52.078Z,39.50
2019-05-23T18:36:21.799Z,25.13
2019-05-23T18:38:51.844Z,21.35
2019-05-23T18:41:21.336Z,20.57
2019-05-23T18:43:51.475Z,20.85
2019-05-23T18:46:26.795Z,21.17
2019-05-23T18:48:56.531Z,21.87
2019-05-23T18:51:26.416Z,20.23
2019-05-23T18:53:55.861Z,22.55
2019-05-23T18:56:25.572Z,20.25
2019-05-23T18:58:55.107Z,19.60
2019-05-23T19:01:26.408Z,19.15
2019-05-23T19:03:55.946Z,19.80
2019-05-23T19:06:42.926Z,19.87
2019-05-23T19:09:14.192Z,20.82
2019-05-23T19:11:43.980Z,27.90
2019-05-23T19:14:13.454Z,26.27
2019-05-23T19:17:00.928Z,21.07
2019-05-23T19:19:48.261Z,20.52
2019-05-23T19:22:17.990Z,19.62
2019-05-23T19:24:48.034Z,19.63
2019-05-23T19:27:17.477Z,19.70
2019-05-23T19:29:47.748Z,21.82
2019-05-23T19:32:17.746Z,23.35
2019-05-23T19:34:47.788Z,19.82
2019-05-23T19:37:17.389Z,20.03
2019-05-23T19:39:47.656Z,20.68
2019-05-23T19:42:17.615Z,20.32
2019-05-23T19:44:47.046Z,20.70
2019-05-23T19:47:17.435Z,20.72
2019-05-23T19:50:04.626Z,19.33
2019-05-23T19:52:35.033Z,19.17
2019-05-23T19:55:22.696Z,21.12
2019-05-23T19:58:11.258Z,22.13
2019-05-23T20:00:58.640Z,22.40
2019-05-23T20:03:32.603Z,23.05
2019-05-23T20:06:00.260Z,23.07
2019-05-23T20:08:47.505Z,21.87
2019-05-23T20:11:17.017Z,17.60
2019-05-23T20:13:46.554Z,18.17
2019-05-23T20:16:16.060Z,18.00
2019-05-23T20:19:03.057Z,17.42
2019-05-23T20:21:32.877Z,17.52
2019-05-23T20:24:02.341Z,15.58
2019-05-23T20:26:31.817Z,16.85
2019-05-23T20:29:03.344Z,16.33
2019-05-23T20:31:32.354Z,15.17
2019-05-23T20:34:02.056Z,16.05
2019-05-23T20:36:31.500Z,16.27
2019-05-23T20:39:01.090Z,14.65
2019-05-23T20:42:11.402Z,14.47
2019-05-23T20:44:37.471Z,14.70
2019-05-23T20:47:07.924Z,14.33
2019-05-23T20:50:13.928Z,41.02
2019-05-23T20:53:01.720Z,13.08
2019-05-23T20:55:31.664Z,12.40
2019-05-23T20:58:19.114Z,12.90
2019-05-23T21:01:08.302Z,11.88
2019-05-23T21:03:58.322Z,12.28
2019-05-23T21:06:27.817Z,11.55
2019-05-23T21:08:57.390Z,10.78
2019-05-23T21:11:44.467Z,11.20
2019-05-23T21:14:31.705Z,10.90
2019-05-23T21:17:01.188Z,11.15
2019-05-23T21:19:48.298Z,10.50
2019-05-23T21:22:17.741Z,9.43
2019-05-23T21:24:47.182Z,10.95
2019-05-23T21:27:16.623Z,10.40
2019-05-23T21:29:46.017Z,9.85
2019-05-23T21:32:15.493Z,16.10
2019-05-23T21:34:44.896Z,10.58
2019-05-23T21:37:15.033Z,9.53
2019-05-23T21:40:02.280Z,10.15
2019-05-23T21:42:46.583Z,10.70
2019-05-23T21:45:03.272Z,10.08
2019-05-23T21:47:50.405Z,10.77
2019-05-23T21:50:37.501Z,10.33
2019-05-23T21:53:07.482Z,10.08
2019-05-23T21:55:37.958Z,10.48
2019-05-23T21:58:43.500Z,11.07
2019-05-23T22:02:00.379Z,10.70
2019-05-23T22:04:32.920Z,10.40
2019-05-23T22:07:06.774Z,11.05
2019-05-23T22:10:11.631Z,10.30
2019-05-23T22:12:41.158Z,10.30
2019-05-23T22:15:10.868Z,10.43
2019-05-23T22:17:40.399Z,10.60
2019-05-23T22:20:10.022Z,9.60
2019-05-23T22:22:57.699Z,9.53
2019-05-23T22:25:36.261Z,11.28
2019-05-23T22:28:05.688Z,12.35
2019-05-23T22:30:35.075Z,11.68
2019-05-23T22:33:05.905Z,12.15
2019-05-23T22:35:35.280Z,11.53
2019-05-23T22:38:05.239Z,11.00
2019-05-23T22:41:28.526Z,9.95
2019-05-23T22:43:58.293Z,10.85
2019-05-23T22:46:28.894Z,10.10
2019-05-23T22:48:59.329Z,10.00
2019-05-23T22:52:04.516Z,9.37
2019-05-23T22:54:33.933Z,9.03
2019-05-23T22:57:03.506Z,9.10
2019-05-23T22:59:32.939Z,8.03
2019-05-23T23:02:20.370Z,8.68
2019-05-23T23:05:08.636Z,7.83
2019-05-23T23:07:38.105Z,8.15
2019-05-23T23:10:25.438Z,7.97
2019-05-23T23:12:54.872Z,7.50
2019-05-23T23:15:25.197Z,7.83
2019-05-23T23:17:54.596Z,7.83
2019-05-23T23:20:24.033Z,8.08
2019-05-23T23:23:11.198Z,8.10
2019-05-23T23:25:40.659Z,7.58
2019-05-23T23:28:10.420Z,7.77
2019-05-23T23:30:41.554Z,8.03
2019-05-23T23:33:10.944Z,8.03
2019-05-23T23:35:58.381Z,8.60
2019-05-23T23:38:27.867Z,8.43
2019-05-23T23:40:57.337Z,7.75
2019-05-23T23:43:26.752Z,8.13
2019-05-23T23:46:31.979Z,8.68
2019-05-23T23:49:19.202Z,7.87
2019-05-23T23:52:06.409Z,8.10
2019-05-23T23:55:29.605Z,8.57
2019-05-23T23:58:00.870Z,8.23
